Time;durP1;ratioP1;P1;durP2;ratioP2;P2;SDS_P1;SDS_P2;PMS_P1;PMS_P2;Temp;Humidity;BMP_temperature;BMP_pressure;BME280_temperature;BME280_humidity;BME280_pressure;Samples;Min_cycle;Max_cycle;Signal;HPM_P1;HPM_P2
2022/12/20 00:01:24;;;;;;;9.88;6.53;;;6.90;99.90;;;;;;5074028;28;20551;-39
2022/12/20 00:03:51;;;;;;;11.48;6.78;;;7.50;99.90;;;;;;5074067;28;20047;-39
2022/12/20 00:06:18;;;;;;;11.00;7.38;;;7.40;99.90;;;;;;5073656;28;20034;-36
2022/12/20 00:08:44;;;;;;;10.00;6.30;;;7.20;99.90;;;;;;5073848;28;20470;-38
2022/12/20 00:11:10;;;;;;;10.75;6.95;;;7.00;99.90;;;;;;5073922;28;20111;-36
2022/12/20 00:13:36;;;;;;;8.95;6.30;;;6.90;99.90;;;;;;5073991;28;20115;-39
2022/12/20 00:16:14;;;;;;;11.35;6.53;;;6.80;99.90;;;;;;5073237;28;20032;-38
2022/12/20 00:18:40;;;;;;;10.82;6.47;;;6.70;99.90;;;;;;5073925;28;20056;-38
2022/12/20 00:21:09;;;;;;;11.80;6.68;;;6.60;99.90;;;;;;5073698;28;20029;-37
2022/12/20 00:23:35;;;;;;;10.85;6.72;;;6.40;99.90;;;;;;5073741;28;20039;-40
2022/12/20 00:26:02;;;;;;;10.60;6.70;;;6.30;99.90;;;;;;5073786;28;20120;-38
2022/12/20 00:28:28;;;;;;;10.73;6.60;;;6.30;99.90;;;;;;5073599;28;20030;-36
2022/12/20 00:30:57;;;;;;;10.35;6.80;;;7.40;99.90;;;;;;5073536;28;20046;-38
2022/12/20 00:33:23;;;;;;;8.65;5.93;;;7.60;99.90;;;;;;5073650;28;20497;-38
2022/12/20 00:35:48;;;;;;;9.10;6.15;;;7.40;99.90;;;;;;5073318;28;20024;-35
2022/12/20 00:38:14;;;;;;;8.93;5.68;;;7.20;99.90;;;;;;5073536;28;20043;-36
2022/12/20 00:40:39;;;;;;;10.15;6.18;;;7.00;99.90;;;;;;5073329;28;20166;-41
2022/12/20 00:43:05;;;;;;;9.48;6.35;;;6.90;99.90;;;;;;5073269;28;20025;-39
2022/12/20 00:45:31;;;;;;;8.85;5.30;;;6.80;99.90;;;;;;5073147;28;20462;-38
2022/12/20 00:47:56;;;;;;;9.80;6.78;;;6.70;99.90;;;;;;5073239;28;20025;-37
2022/12/20 00:50:22;;;;;;;9.35;6.25;;;6.50;99.90;;;;;;5073195;28;20020;-40
2022/12/20 00:52:47;;;;;;;10.43;6.30;;;6.40;99.90;;;;;;5073191;28;20042;-39
2022/12/20 00:55:13;;;;;;;8.50;5.63;;;6.30;99.90;;;;;;5072962;28;20043;-37
2022/12/20 00:57:39;;;;;;;7.85;5.60;;;6.70;99.90;;;;;;5072761;28;20417;-42
2022/12/20 01:00:06;;;;;;;9.30;6.03;;;7.60;99.90;;;;;;5072801;28;20112;-38
2022/12/20 01:02:32;;;;;;;6.57;5.15;;;7.50;99.90;;;;;;5072992;28;20075;-37
2022/12/20 01:04:57;;;;;;;8.15;5.30;;;7.30;99.90;;;;;;5073056;28;20486;-36
2022/12/20 01:07:23;;;;;;;9.05;5.75;;;7.10;99.90;;;;;;5072561;28;20469;-39
2022/12/20 01:09:52;;;;;;;8.30;5.40;;;7.00;99.90;;;;;;5071799;28;20025;-37
2022/12/20 01:12:17;;;;;;;8.70;5.68;;;6.80;99.90;;;;;;5072727;28;20078;-39
2022/12/20 01:14:43;;;;;;;8.60;5.93;;;6.80;99.90;;;;;;5072433;28;20424;-40
2022/12/20 01:17:09;;;;;;;7.80;4.70;;;6.60;99.90;;;;;;5072350;28;20033;-38
2022/12/20 01:19:35;;;;;;;6.95;5.20;;;6.50;99.90;;;;;;5072637;28;20028;-40
2022/12/20 01:22:00;;;;;;;7.57;5.18;;;6.40;99.90;;;;;;5072619;28;20017;-40
2022/12/20 01:24:26;;;;;;;8.88;5.50;;;6.30;99.90;;;;;;5072405;28;20023;-35
2022/12/20 01:26:52;;;;;;;8.23;5.72;;;7.30;99.90;;;;;;5072154;28;20024;-38
2022/12/20 01:29:18;;;;;;;7.68;4.97;;;7.60;99.90;;;;;;5072462;28;20364;-40
2022/12/20 01:31:43;;;;;;;6.70;4.70;;;7.40;99.90;;;;;;5072657;28;20024;-41
2022/12/20 01:34:09;;;;;;;8.13;5.53;;;7.30;99.90;;;;;;5072439;28;20470;-36
2022/12/20 01:36:37;;;;;;;7.05;5.18;;;7.10;99.90;;;;;;5072058;28;20032;-36
2022/12/20 01:39:10;;;;;;;8.07;4.97;;;6.90;99.90;;;;;;5072111;28;20523;-36
2022/12/20 01:41:36;;;;;;;7.78;5.20;;;6.80;99.90;;;;;;5072201;28;20513;-35
2022/12/20 01:44:16;;;;;;;6.85;5.05;;;6.70;99.90;;;;;;5072123;28;20486;-40
2022/12/20 01:46:43;;;;;;;7.00;4.82;;;6.60;99.90;;;;;;5070530;28;20074;-40
2022/12/20 01:49:18;;;;;;;7.00;5.20;;;6.40;99.90;;;;;;5072010;28;20367;-36
2022/12/20 01:51:47;;;;;;;7.88;5.05;;;6.20;99.90;;;;;;5071920;28;20111;-40
2022/12/20 01:54:18;;;;;;;7.35;4.47;;;7.00;99.90;;;;;;5072064;28;20039;-40
2022/12/20 01:56:49;;;;;;;6.40;4.78;;;7.60;99.90;;;;;;5071722;28;20115;-35
2022/12/20 01:59:15;;;;;;;6.78;4.93;;;7.50;99.90;;;;;;5071771;28;20482;-37
2022/12/20 02:01:42;;;;;;;6.80;4.93;;;7.30;99.90;;;;;;5071759;28;20017;-39
2022/12/20 02:04:10;;;;;;;7.25;4.72;;;7.10;99.90;;;;;;5071640;28;20386;-36
2022/12/20 02:06:35;;;;;;;7.57;5.18;;;6.90;99.90;;;;;;5071448;28;20020;-34
2022/12/20 02:09:03;;;;;;;7.15;4.82;;;6.80;99.90;;;;;;5071708;28;20032;-41
2022/12/20 02:12:08;;;;;;;7.93;5.10;;;6.70;99.90;;;;;;5071584;28;20021;-39
2022/12/20 02:14:55;;;;;;;8.98;4.57;;;6.60;99.90;;;;;;5071283;28;20100;-40
2022/12/20 02:17:42;;;;;;;6.32;4.47;;;6.40;99.90;;;;;;5071284;28;20020;-39
2022/12/20 02:20:11;;;;;;;6.15;4.43;;;6.30;99.90;;;;;;5071265;28;20075;-36
2022/12/20 02:22:42;;;;;;;6.18;4.47;;;7.00;99.90;;;;;;5071448;28;20031;-37
2022/12/20 02:25:25;;;;;;;6.90;4.53;;;7.60;99.90;;;;;;5071451;28;20016;-39
2022/12/20 02:27:53;;;;;;;7.68;5.20;;;7.50;99.90;;;;;;5071324;28;20363;-37
2022/12/20 02:30:22;;;;;;;6.15;4.50;;;7.20;99.90;;;;;;5071828;28;20052;-39
2022/12/20 02:32:58;;;;;;;6.45;4.35;;;7.10;99.90;;;;;;5071345;28;20021;-39
2022/12/20 02:35:27;;;;;;;7.03;4.65;;;6.90;99.90;;;;;;5071646;28;20487;-36
2022/12/20 02:37:59;;;;;;;6.32;4.30;;;6.80;99.90;;;;;;5071125;28;20032;-40
2022/12/20 02:40:43;;;;;;;6.38;4.53;;;6.70;99.90;;;;;;5071242;28;20055;-37
2022/12/20 02:45:57;;;;;;;7.68;4.43;;;6.40;99.90;;;;;;5071206;28;20107;-39
2022/12/20 02:48:24;;;;;;;7.03;4.70;;;6.30;99.90;;;;;;5071196;28;20069;-39
2022/12/20 02:50:53;;;;;;;7.15;4.63;;;7.00;99.90;;;;;;5071201;28;20042;-38
2022/12/20 02:53:20;;;;;;;7.50;4.32;;;7.60;99.90;;;;;;5071129;28;20024;-40
2022/12/20 02:55:54;;;;;;;6.53;4.38;;;7.50;99.90;;;;;;5070708;28;20032;-38
2022/12/20 02:58:43;;;;;;;6.50;4.05;;;7.30;99.90;;;;;;5071128;28;20047;-37
2022/12/20 03:01:20;;;;;;;6.53;4.30;;;7.10;99.90;;;;;;5071078;28;20075;-39
2022/12/20 03:03:46;;;;;;;6.55;4.18;;;6.90;99.90;;;;;;5071137;28;20017;-36
2022/12/20 03:06:12;;;;;;;6.47;4.53;;;6.80;99.90;;;;;;5070692;28;20025;-36
2022/12/20 03:08:37;;;;;;;7.40;4.88;;;6.70;99.90;;;;;;5071736;28;20090;-40
2022/12/20 03:11:03;;;;;;;4.93;3.60;;;6.60;99.90;;;;;;5070979;28;20470;-40
2022/12/20 03:13:28;;;;;;;6.38;4.20;;;6.50;99.90;;;;;;5071086;28;20103;-38
2022/12/20 03:15:54;;;;;;;6.90;4.30;;;6.30;99.90;;;;;;5070435;28;20017;-38
2022/12/20 03:18:26;;;;;;;6.38;4.18;;;6.40;99.90;;;;;;5070792;28;20025;-37
2022/12/20 03:20:51;;;;;;;6.13;4.63;;;7.50;99.90;;;;;;5070927;28;20028;-41
2022/12/20 03:23:17;;;;;;;6.68;4.32;;;7.50;99.90;;;;;;5070882;28;20016;-34
2022/12/20 03:25:43;;;;;;;5.75;3.95;;;7.30;99.90;;;;;;5070802;28;20017;-37
2022/12/20 03:28:08;;;;;;;6.55;4.10;;;7.10;99.90;;;;;;5070650;28;20508;-40
2022/12/20 03:30:34;;;;;;;6.80;4.65;;;7.00;99.90;;;;;;5070899;28;20111;-39
2022/12/20 03:32:59;;;;;;;6.35;3.78;;;6.90;99.90;;;;;;5072872;28;20395;-37
2022/12/20 03:35:25;;;;;;;7.00;4.28;;;6.80;99.90;;;;;;5074621;28;20051;-37
2022/12/20 03:37:51;;;;;;;5.25;3.83;;;6.70;99.90;;;;;;5074478;28;20151;-40
2022/12/20 03:40:16;;;;;;;5.72;4.07;;;6.60;99.90;;;;;;5074413;28;20500;-37
2022/12/20 03:42:42;;;;;;;4.88;3.75;;;6.40;99.90;;;;;;5074496;28;20017;-37
2022/12/20 03:45:09;;;;;;;6.32;4.13;;;6.20;99.90;;;;;;5074991;28;20715;-37
2022/12/20 03:47:34;;;;;;;5.30;3.97;;;6.90;99.90;;;;;;5074029;28;20108;-40
2022/12/20 03:50:00;;;;;;;5.82;3.97;;;7.50;99.90;;;;;;5074354;28;20111;-38
2022/12/20 03:52:25;;;;;;;6.05;3.92;;;7.40;99.90;;;;;;5074230;28;20103;-40
2022/12/20 03:54:51;;;;;;;5.28;3.45;;;7.20;99.90;;;;;;5074146;28;20037;-40
2022/12/20 03:57:17;;;;;;;5.95;3.95;;;7.10;99.90;;;;;;5073958;28;20016;-41
2022/12/20 03:59:43;;;;;;;7.28;4.25;;;6.90;99.90;;;;;;5074067;28;20043;-35
2022/12/20 04:02:09;;;;;;;5.80;4.10;;;6.80;99.90;;;;;;5074028;28;20031;-35
2022/12/20 04:04:34;;;;;;;5.72;3.78;;;6.70;99.90;;;;;;5074146;28;20021;-34
2022/12/20 04:07:00;;;;;;;5.13;3.53;;;6.60;99.90;;;;;;5072767;28;20364;-35
2022/12/20 04:09:26;;;;;;;5.15;3.53;;;6.50;99.90;;;;;;5073987;28;20020;-38
2022/12/20 04:11:51;;;;;;;5.22;3.60;;;6.30;99.90;;;;;;5073933;28;20020;-36
2022/12/20 04:14:17;;;;;;;5.53;3.30;;;6.30;99.90;;;;;;5073865;28;20021;-38
2022/12/20 04:16:43;;;;;;;5.05;3.25;;;7.40;99.90;;;;;;5073453;28;20359;-40
2022/12/20 04:19:08;;;;;;;4.85;3.25;;;7.50;99.90;;;;;;5073742;28;20023;-38
2022/12/20 04:21:34;;;;;;;5.28;3.65;;;7.40;99.90;;;;;;5075742;28;20056;-39
2022/12/20 04:24:01;;;;;;;5.57;3.90;;;7.20;99.90;;;;;;5073705;28;20493;-35
2022/12/20 04:26:28;;;;;;;4.40;3.40;;;7.00;99.90;;;;;;5073375;28;20036;-36
2022/12/20 04:28:53;;;;;;;4.10;3.13;;;6.80;99.90;;;;;;5073602;28;20016;-38
2022/12/20 04:31:19;;;;;;;4.50;3.00;;;6.80;99.90;;;;;;5072208;28;20090;-38
2022/12/20 04:33:46;;;;;;;4.72;3.20;;;6.60;99.90;;;;;;5073579;28;20028;-40
2022/12/20 04:36:11;;;;;;;6.18;3.90;;;6.50;99.90;;;;;;5073180;28;20075;-38
2022/12/20 04:38:37;;;;;;;5.38;3.28;;;6.30;99.90;;;;;;5073482;28;20060;-38
2022/12/20 04:41:03;;;;;;;5.78;3.90;;;6.20;99.90;;;;;;5073437;28;20028;-40
2022/12/20 04:43:28;;;;;;;5.72;3.85;;;6.90;99.90;;;;;;5073181;28;20020;-38
2022/12/20 04:45:55;;;;;;;5.32;3.75;;;7.50;99.90;;;;;;5072975;28;20500;-36
2022/12/20 04:48:25;;;;;;;5.35;3.40;;;7.40;99.90;;;;;;5073303;28;20020;-37
2022/12/20 04:50:52;;;;;;;5.38;3.60;;;7.20;99.90;;;;;;5073391;28;20021;-36
2022/12/20 04:56:03;;;;;;;5.53;3.72;;;6.90;99.90;;;;;;5072708;28;20043;-39
2022/12/20 04:58:29;;;;;;;4.47;3.28;;;6.80;99.90;;;;;;5073294;28;20040;-37
2022/12/20 05:00:54;;;;;;;4.18;3.00;;;6.70;99.90;;;;;;5072981;28;20036;-38
2022/12/20 05:03:22;;;;;;;4.10;3.05;;;6.60;99.90;;;;;;5073172;28;20027;-36
2022/12/20 05:05:48;;;;;;;4.93;3.15;;;6.40;99.90;;;;;;5071281;28;20028;-41
2022/12/20 05:08:14;;;;;;;5.95;3.20;;;6.30;99.90;;;;;;5072968;28;20032;-40
2022/12/20 05:10:40;;;;;;;4.57;3.17;;;6.70;99.90;;;;;;5072722;28;20072;-40
2022/12/20 05:13:06;;;;;;;5.40;3.28;;;7.50;99.90;;;;;;5072887;28;20458;-37
2022/12/20 05:15:32;;;;;;;4.78;3.40;;;7.40;99.90;;;;;;5072892;28;20033;-39
2022/12/20 05:17:58;;;;;;;4.53;3.30;;;7.20;99.90;;;;;;5072465;28;20020;-36
2022/12/20 05:20:29;;;;;;;4.80;3.63;;;7.00;99.90;;;;;;5072984;28;20036;-37
2022/12/20 05:28:26;;;;;;;4.53;2.97;;;6.70;99.90;;;;;;5072796;28;20368;-37
2022/12/20 05:30:51;;;;;;;4.50;2.97;;;6.60;99.90;;;;;;5072457;28;20024;-36
2022/12/20 05:33:17;;;;;;;4.95;3.17;;;6.40;99.90;;;;;;5072389;28;20032;-38
2022/12/20 05:35:42;;;;;;;4.85;3.10;;;6.20;99.90;;;;;;5071974;28;20386;-38
2022/12/20 05:38:08;;;;;;;4.72;3.17;;;6.80;99.90;;;;;;5072164;28;20032;-40
2022/12/20 05:40:34;;;;;;;5.88;3.10;;;7.50;99.90;;;;;;5072508;28;20048;-40
2022/12/20 05:43:00;;;;;;;4.55;3.10;;;7.40;99.90;;;;;;5072324;28;20032;-36
2022/12/20 05:45:28;;;;;;;4.22;2.90;;;7.20;99.90;;;;;;5072314;28;20466;-40
2022/12/20 05:47:54;;;;;;;4.72;2.90;;;7.00;99.90;;;;;;5071923;28;20091;-40
2022/12/20 05:50:21;;;;;;;4.20;2.92;;;6.90;99.90;;;;;;5071976;28;20546;-37
2022/12/20 05:52:46;;;;;;;3.25;2.67;;;6.80;99.90;;;;;;5072051;28;20028;-38
2022/12/20 05:55:12;;;;;;;4.10;2.97;;;6.70;99.90;;;;;;5071329;28;20513;-38
2022/12/20 05:57:41;;;;;;;4.82;3.08;;;6.60;99.90;;;;;;5071644;28;20067;-38
2022/12/20 06:00:07;;;;;;;4.93;3.38;;;6.50;99.90;;;;;;5071814;28;20052;-41
2022/12/20 06:02:32;;;;;;;4.15;2.95;;;6.30;99.90;;;;;;5071895;28;20038;-39
2022/12/20 06:04:58;;;;;;;4.53;3.08;;;6.50;99.90;;;;;;5070275;28;20522;-40
2022/12/20 06:07:27;;;;;;;3.92;3.08;;;7.40;99.90;;;;;;5071417;28;20024;-39
2022/12/20 06:09:53;;;;;;;4.03;2.70;;;7.50;99.90;;;;;;5071726;28;20043;-40
2022/12/20 06:12:19;;;;;;;5.05;3.30;;;7.20;99.90;;;;;;5071811;28;20143;-41
2022/12/20 06:14:44;;;;;;;4.43;3.25;;;7.10;99.90;;;;;;5071614;28;20459;-37
2022/12/20 06:17:10;;;;;;;4.10;2.65;;;6.90;99.90;;;;;;5071238;28;20028;-39
2022/12/20 06:19:36;;;;;;;3.65;2.50;;;6.80;99.90;;;;;;5071337;28;20470;-40
2022/12/20 06:22:02;;;;;;;4.78;2.70;;;6.70;99.90;;;;;;5071523;28;20044;-42
2022/12/20 06:24:28;;;;;;;4.63;3.00;;;6.60;99.90;;;;;;5071543;28;20052;-41
2022/12/20 06:26:53;;;;;;;4.00;2.92;;;6.50;99.90;;;;;;5071199;28;20097;-42
2022/12/20 06:29:19;;;;;;;4.40;2.95;;;6.30;99.90;;;;;;5071472;28;20028;-42
2022/12/20 06:31:46;;;;;;;3.92;2.78;;;6.20;99.90;;;;;;5071873;28;20543;-42
2022/12/20 06:34:12;;;;;;;4.82;3.25;;;7.30;99.90;;;;;;5071303;28;20040;-42
2022/12/20 06:36:38;;;;;;;4.03;2.58;;;7.50;99.90;;;;;;5071088;28;20128;-37
2022/12/20 06:39:04;;;;;;;3.67;2.80;;;7.30;99.90;;;;;;5071336;28;20398;-38
2022/12/20 06:41:29;;;;;;;3.38;2.70;;;7.10;99.90;;;;;;5071304;28;20032;-39
2022/12/20 06:43:55;;;;;;;3.63;2.45;;;7.00;99.90;;;;;;5071376;28;20013;-39
2022/12/20 06:46:21;;;;;;;4.50;3.10;;;6.90;99.90;;;;;;5070983;28;20048;-39
2022/12/20 06:48:48;;;;;;;2.92;2.45;;;6.80;99.90;;;;;;5071182;28;20481;-39
2022/12/20 06:51:17;;;;;;;4.05;2.90;;;6.70;99.90;;;;;;5071352;28;20206;-38
2022/12/20 06:53:42;;;;;;;3.10;2.70;;;6.50;99.90;;;;;;5071224;28;20033;-38
2022/12/20 06:56:08;;;;;;;3.47;2.70;;;6.40;99.90;;;;;;5071107;28;20090;-39
2022/12/20 06:58:33;;;;;;;4.05;2.50;;;6.20;99.90;;;;;;5071170;28;20025;-37
2022/12/20 07:01:01;;;;;;;4.70;2.72;;;7.00;99.90;;;;;;5070965;28;20114;-38
2022/12/20 07:03:27;;;;;;;3.53;2.70;;;7.50;99.90;;;;;;5071065;28;20028;-39
2022/12/20 07:05:54;;;;;;;4.25;2.70;;;7.40;99.90;;;;;;5071015;28;20082;-39
2022/12/20 07:08:20;;;;;;;3.38;2.55;;;7.20;99.90;;;;;;5073814;28;20023;-37
2022/12/20 07:10:46;;;;;;;4.38;2.53;;;7.00;99.90;;;;;;5075160;28;20090;-36
2022/12/20 07:13:11;;;;;;;3.28;2.50;;;6.90;99.90;;;;;;5075102;28;20028;-36
2022/12/20 07:15:37;;;;;;;3.55;2.47;;;6.80;99.90;;;;;;5074845;28;20025;-39
2022/12/20 07:18:03;;;;;;;3.22;2.70;;;6.70;99.90;;;;;;5074768;28;20035;-39
2022/12/20 07:20:29;;;;;;;3.85;2.53;;;6.60;99.90;;;;;;5074900;28;20025;-39
2022/12/20 07:22:55;;;;;;;4.05;2.47;;;6.40;99.90;;;;;;5074921;28;20059;-34
2022/12/20 07:25:21;;;;;;;3.63;2.92;;;6.30;99.90;;;;;;5074922;28;20123;-39
2022/12/20 07:27:50;;;;;;;4.07;2.65;;;6.70;99.90;;;;;;5074565;28;20477;-40
2022/12/20 07:30:18;;;;;;;3.50;2.53;;;7.50;99.90;;;;;;5074677;28;20354;-36
2022/12/20 07:32:44;;;;;;;2.95;2.40;;;7.40;99.90;;;;;;5073308;28;20115;-40
2022/12/20 07:35:11;;;;;;;3.30;2.30;;;7.20;99.90;;;;;;5074822;28;20032;-37
2022/12/20 07:37:37;;;;;;;4.03;2.70;;;7.00;99.90;;;;;;5074329;28;20063;-38
2022/12/20 07:40:03;;;;;;;3.38;2.40;;;6.90;99.90;;;;;;5074508;28;20470;-34
2022/12/20 07:42:29;;;;;;;11.13;5.97;;;6.80;99.90;;;;;;5074442;28;20027;-36
2022/12/20 07:44:54;;;;;;;8.85;4.50;;;6.70;99.90;;;;;;5074371;28;20025;-36
2022/12/20 07:47:21;;;;;;;8.52;5.00;;;6.50;99.90;;;;;;5074124;28;20028;-37
2022/12/20 07:49:48;;;;;;;11.68;4.72;;;6.30;99.90;;;;;;5074419;28;20020;-36
2022/12/20 07:52:16;;;;;;;8.70;4.60;;;6.20;99.90;;;;;;5074391;28;20028;-37
2022/12/20 07:54:47;;;;;;;7.85;4.65;;;6.40;99.90;;;;;;5072893;28;20032;-38
2022/12/20 07:57:20;;;;;;;6.30;4.40;;;7.30;99.90;;;;;;5073986;28;20036;-40
2022/12/20 07:59:50;;;;;;;7.10;4.25;;;7.30;99.90;;;;;;5074173;28;20021;-40
2022/12/20 08:02:25;;;;;;;10.02;4.22;;;7.10;99.90;;;;;;5074101;28;20108;-40
2022/12/20 08:04:52;;;;;;;10.00;4.43;;;6.90;99.90;;;;;;5074137;28;20024;-39
2022/12/20 08:07:18;;;;;;;7.32;3.95;;;6.80;99.90;;;;;;5073749;28;20032;-41
2022/12/20 08:09:46;;;;;;;7.25;4.13;;;6.60;99.90;;;;;;5073878;28;20028;-40
2022/12/20 08:12:14;;;;;;;6.55;3.90;;;6.50;99.90;;;;;;5073994;28;20032;-40
2022/12/20 08:14:40;;;;;;;7.30;4.35;;;6.30;99.90;;;;;;5072619;28;20103;-37
2022/12/20 08:17:06;;;;;;;9.40;4.47;;;6.20;99.90;;;;;;5073586;28;20105;-38
2022/12/20 08:19:32;;;;;;;10.98;4.88;;;6.00;99.90;;;;;;5073142;28;20458;-40
2022/12/20 08:21:58;;;;;;;7.53;4.05;;;6.70;99.90;;;;;;5073769;28;20512;-38
2022/12/20 08:24:24;;;;;;;6.22;3.90;;;7.30;99.90;;;;;;5073634;28;20095;-37
2022/12/20 08:26:50;;;;;;;8.35;4.28;;;7.20;99.90;;;;;;5073446;28;20021;-41
2022/12/20 08:29:16;;;;;;;5.72;3.80;;;7.00;99.90;;;;;;5073685;28;20470;-38
2022/12/20 08:31:42;;;;;;;8.23;4.20;;;6.90;99.90;;;;;;5073700;28;20029;-41
2022/12/20 08:34:08;;;;;;;5.38;3.70;;;6.70;99.90;;;;;;5073931;28;20025;-40
2022/12/20 08:36:34;;;;;;;5.53;3.78;;;6.60;99.90;;;;;;5073322;28;20393;-40
2022/12/20 08:39:04;;;;;;;6.22;3.55;;;6.50;99.90;;;;;;5073410;28;20028;-39
2022/12/20 08:41:30;;;;;;;7.00;4.00;;;6.30;99.90;;;;;;5073442;28;20021;-36
2022/12/20 08:43:56;;;;;;;7.72;4.00;;;6.20;99.90;;;;;;5072018;28;20112;-36
2022/12/20 08:46:21;;;;;;;7.53;3.78;;;6.00;99.90;;;;;;5073062;28;20127;-37
2022/12/20 08:48:47;;;;;;;6.10;3.80;;;5.90;99.90;;;;;;5073431;28;20207;-39
2022/12/20 08:51:13;;;;;;;5.78;3.67;;;5.80;99.90;;;;;;5073342;28;20527;-40
2022/12/20 08:53:41;;;;;;;6.35;4.10;;;5.70;99.90;;;;;;5073239;28;20063;-40
2022/12/20 08:56:06;;;;;;;7.45;4.47;;;5.70;99.90;;;;;;5072953;28;20036;-37
2022/12/20 08:58:33;;;;;;;5.10;3.47;;;5.60;99.90;;;;;;5073161;28;20535;-37
2022/12/20 09:00:59;;;;;;;5.97;3.90;;;5.60;99.90;;;;;;5072942;28;20478;-36
2022/12/20 09:03:25;;;;;;;6.43;3.65;;;5.50;99.90;;;;;;5073005;28;20070;-40
2022/12/20 09:05:51;;;;;;;8.82;4.35;;;5.50;99.90;;;;;;5072710;28;20382;-42
2022/12/20 09:08:19;;;;;;;5.47;3.75;;;5.50;99.90;;;;;;5073290;28;20031;-40
2022/12/20 09:10:44;;;;;;;5.38;3.70;;;5.50;99.90;;;;;;5072870;28;20082;-39
2022/12/20 09:13:10;;;;;;;6.32;3.30;;;5.50;99.90;;;;;;5072855;28;20025;-41
2022/12/20 09:15:36;;;;;;;5.18;3.60;;;5.50;99.90;;;;;;5072913;28;20029;-38
2022/12/20 09:18:02;;;;;;;8.38;3.85;;;5.40;99.90;;;;;;5072612;28;20448;-41
2022/12/20 09:20:29;;;;;;;4.82;3.17;;;5.40;99.90;;;;;;5072622;28;20021;-37
2022/12/20 09:22:54;;;;;;;6.22;3.47;;;5.40;99.90;;;;;;5073093;28;20488;-42
2022/12/20 09:25:20;;;;;;;5.90;3.92;;;5.40;99.90;;;;;;5072652;28;20021;-41
2022/12/20 09:27:46;;;;;;;7.20;3.97;;;5.40;99.90;;;;;;5072263;28;20056;-41
2022/12/20 09:30:12;;;;;;;5.07;3.60;;;5.40;99.90;;;;;;5071539;28;20040;-39
2022/12/20 09:32:37;;;;;;;5.13;3.65;;;5.40;99.90;;;;;;5072448;28;20034;-39
2022/12/20 09:35:04;;;;;;;4.95;3.33;;;6.60;99.90;;;;;;5072408;28;20024;-42
2022/12/20 09:37:31;;;;;;;6.15;3.30;;;7.20;99.90;;;;;;5071967;28;20029;-41
2022/12/20 09:40:00;;;;;;;7.03;3.50;;;7.20;99.90;;;;;;5072681;28;20029;-41
2022/12/20 09:42:28;;;;;;;5.15;3.30;;;7.00;99.90;;;;;;5072278;28;20462;-42
2022/12/20 09:45:07;;;;;;;5.93;3.92;;;6.80;99.90;;;;;;5072154;28;20134;-41
2022/12/20 09:47:35;;;;;;;5.18;3.40;;;6.60;99.90;;;;;;5071914;28;20047;-42
2022/12/20 09:50:02;;;;;;;5.63;3.33;;;6.60;99.90;;;;;;5072025;28;20063;-40
2022/12/20 09:52:54;;;;;;;6.35;3.67;;;6.50;99.90;;;;;;5072116;28;20036;-40
2022/12/20 09:55:37;;;;;;;4.82;2.97;;;6.30;99.90;;;;;;5071965;28;20032;-39
2022/12/20 09:58:40;;;;;;;5.45;3.42;;;6.20;99.90;;;;;;5071785;28;20028;-41
2022/12/20 10:01:20;;;;;;;5.18;3.33;;;6.10;99.90;;;;;;5071797;28;20035;-41
2022/12/20 10:03:45;;;;;;;5.43;3.28;;;6.00;99.90;;;;;;5071902;28;20017;-41
2022/12/20 10:06:20;;;;;;;4.40;3.03;;;5.90;99.90;;;;;;5071495;28;20100;-40
2022/12/20 10:08:51;;;;;;;5.28;3.17;;;5.90;99.90;;;;;;5071652;28;20099;-40
2022/12/20 10:11:49;;;;;;;5.05;3.35;;;5.80;99.90;;;;;;5071701;28;20103;-37
2022/12/20 10:14:36;;;;;;;6.00;3.38;;;5.90;99.90;;;;;;5062224;28;20079;-41
2022/12/20 10:17:09;;;;;;;5.78;3.15;;;7.00;99.90;;;;;;5071272;28;20032;-38
2022/12/20 10:19:56;;;;;;;4.77;3.07;;;7.20;99.90;;;;;;5071553;28;20024;-41
2022/12/20 10:22:44;;;;;;;6.18;3.45;;;7.00;99.90;;;;;;5071798;28;20342;-39
2022/12/20 10:25:12;;;;;;;5.32;3.00;;;6.90;99.90;;;;;;5071421;28;20016;-39
2022/12/20 10:27:43;;;;;;;4.72;2.97;;;6.70;99.90;;;;;;5071294;28;20055;-41
2022/12/20 10:30:17;;;;;;;4.35;2.63;;;6.60;99.90;;;;;;5071445;28;20035;-42
2022/12/20 10:32:49;;;;;;;4.63;3.10;;;6.50;99.90;;;;;;5071354;28;20025;-40
2022/12/20 10:35:27;;;;;;;5.32;3.22;;;6.30;99.90;;;;;;5071316;28;20032;-42
2022/12/20 10:38:03;;;;;;;4.85;2.80;;;6.20;99.90;;;;;;5071065;28;20051;-40
2022/12/20 10:40:45;;;;;;;5.43;2.83;;;6.10;99.90;;;;;;5071256;28;20056;-41
2022/12/20 10:43:22;;;;;;;3.95;2.83;;;6.00;99.90;;;;;;5071358;28;20047;-39
2022/12/20 10:46:01;;;;;;;7.40;3.30;;;5.90;99.90;;;;;;5071153;28;20036;-38
2022/12/20 10:48:35;;;;;;;4.93;2.95;;;5.90;99.90;;;;;;5071275;28;20482;-39
2022/12/20 10:51:13;;;;;;;4.78;2.72;;;5.80;99.90;;;;;;5071349;28;20028;-40
2022/12/20 10:53:58;;;;;;;5.45;3.20;;;6.50;99.90;;;;;;5071235;28;20482;-41
2022/12/20 10:56:28;;;;;;;3.75;2.80;;;7.20;99.90;;;;;;5070881;28;20036;-42
2022/12/20 10:58:56;;;;;;;4.90;2.90;;;7.10;99.90;;;;;;5071173;28;20501;-40
2022/12/20 11:01:30;;;;;;;5.07;3.13;;;7.00;99.90;;;;;;5069733;28;20497;-40
2022/12/20 11:04:19;;;;;;;5.07;3.60;;;6.80;99.90;;;;;;5071121;28;20029;-40
2022/12/20 11:06:45;;;;;;;5.28;3.13;;;6.70;99.90;;;;;;5070821;28;20024;-41
2022/12/20 11:09:16;;;;;;;3.58;2.70;;;6.60;99.90;;;;;;5070906;28;20030;-40
2022/12/20 11:12:04;;;;;;;4.25;2.95;;;6.50;99.90;;;;;;5071126;28;20062;-40
2022/12/20 11:14:32;;;;;;;4.85;2.60;;;6.30;99.90;;;;;;5071043;28;20025;-41
2022/12/20 11:17:03;;;;;;;5.13;2.78;;;6.20;99.90;;;;;;5070677;28;20450;-41
2022/12/20 11:19:35;;;;;;;4.95;2.72;;;6.10;99.90;;;;;;5070761;28;20040;-39
2022/12/20 11:22:12;;;;;;;4.85;2.92;;;6.00;99.90;;;;;;5071014;28;20446;-42
2022/12/20 11:25:10;;;;;;;6.20;3.22;;;5.90;99.90;;;;;;5070968;28;20099;-41
2022/12/20 11:27:48;;;;;;;3.30;2.53;;;5.80;99.90;;;;;;5070566;28;20537;-42
2022/12/20 11:30:19;;;;;;;3.42;2.58;;;5.80;99.90;;;;;;5071176;28;20359;-42
2022/12/20 11:33:04;;;;;;;4.28;2.55;;;6.70;99.90;;;;;;5070839;28;20099;-42
2022/12/20 11:35:47;;;;;;;4.28;2.85;;;7.20;99.90;;;;;;5070783;28;20032;-40
2022/12/20 11:38:32;;;;;;;4.22;2.60;;;7.10;99.90;;;;;;5070699;28;20028;-42
2022/12/20 11:41:03;;;;;;;3.83;2.42;;;7.00;99.90;;;;;;5070760;28;20028;-41
2022/12/20 11:43:35;;;;;;;4.68;2.50;;;6.80;99.90;;;;;;5070785;28;20090;-39
2022/12/20 11:46:25;;;;;;;4.53;2.95;;;6.70;99.90;;;;;;5070498;28;20029;-40
2022/12/20 11:49:31;;;;;;;6.25;2.50;;;6.50;99.90;;;;;;5070704;28;20056;-42
2022/12/20 11:52:40;;;;;;;5.18;2.85;;;6.40;99.90;;;;;;5048203;28;20029;-41
2022/12/20 11:55:11;;;;;;;4.22;2.60;;;6.20;99.90;;;;;;5074168;28;20086;-38
2022/12/20 11:58:00;;;;;;;4.25;3.00;;;6.10;99.90;;;;;;5074114;28;20021;-39
2022/12/20 12:00:29;;;;;;;6.20;2.85;;;6.00;99.90;;;;;;5070424;28;20028;-38
2022/12/20 12:03:00;;;;;;;3.13;2.00;;;5.90;99.90;;;;;;5074189;28;20024;-38
2022/12/20 12:05:44;;;;;;;3.70;2.75;;;5.90;99.90;;;;;;5074056;28;20032;-40
2022/12/20 12:08:24;;;;;;;3.80;2.95;;;5.80;99.90;;;;;;5074041;28;20027;-40
2022/12/20 12:11:01;;;;;;;4.50;2.75;;;6.00;99.90;;;;;;5074415;28;20028;-40
2022/12/20 12:13:38;;;;;;;5.40;2.78;;;7.10;99.90;;;;;;5073951;28;20048;-42
2022/12/20 12:16:33;;;;;;;4.55;2.90;;;7.20;99.90;;;;;;5073468;28;20024;-40
2022/12/20 12:19:02;;;;;;;4.72;2.65;;;7.00;99.90;;;;;;5073997;28;20043;-40
2022/12/20 12:21:37;;;;;;;4.10;2.80;;;6.90;99.90;;;;;;5073800;28;20029;-41
2022/12/20 12:24:13;;;;;;;4.75;2.75;;;6.80;99.90;;;;;;5073909;28;20056;-40
2022/12/20 12:26:39;;;;;;;4.45;2.42;;;6.70;99.90;;;;;;5073320;28;20021;-39
2022/12/20 12:29:16;;;;;;;4.28;2.63;;;6.50;99.90;;;;;;5073717;28;20020;-41
2022/12/20 12:31:44;;;;;;;4.20;2.90;;;6.30;99.90;;;;;;5073717;28;20016;-41
2022/12/20 12:34:51;;;;;;;3.72;2.58;;;6.20;99.90;;;;;;5073661;28;20021;-39
2022/12/20 12:37:38;;;;;;;3.30;2.40;;;6.10;99.90;;;;;;5050765;28;20203;-39
2022/12/20 12:40:37;;;;;;;4.15;2.53;;;6.00;99.90;;;;;;5072009;28;20048;-39
2022/12/20 12:43:14;;;;;;;4.40;2.30;;;5.90;99.90;;;;;;5073529;28;20394;-40
2022/12/20 12:45:47;;;;;;;6.30;2.50;;;5.90;99.90;;;;;;5073455;28;20029;-38
2022/12/20 12:48:21;;;;;;;5.57;2.30;;;5.90;99.90;;;;;;5073415;28;20021;-41
2022/12/20 12:50:52;;;;;;;5.60;2.85;;;6.30;99.90;;;;;;5073415;28;20024;-40
2022/12/20 12:53:42;;;;;;;3.33;2.50;;;7.20;99.90;;;;;;5073327;28;20025;-41
2022/12/20 12:56:29;;;;;;;4.20;2.40;;;7.10;99.90;;;;;;5069861;28;20048;-41
2022/12/20 12:59:22;;;;;;;4.15;2.40;;;7.00;99.90;;;;;;5073201;28;20033;-41
2022/12/20 13:02:14;;;;;;;3.35;2.45;;;6.90;99.90;;;;;;5073102;28;20020;-39
2022/12/20 13:05:11;;;;;;;3.80;2.33;;;6.80;99.90;;;;;;5071678;28;20048;-42
2022/12/20 13:07:43;;;;;;;4.13;2.90;;;6.60;99.90;;;;;;5072734;28;20012;-39
2022/12/20 13:10:14;;;;;;;4.18;3.03;;;6.40;99.90;;;;;;5072933;28;20202;-42
2022/12/20 13:12:39;;;;;;;4.32;2.42;;;6.30;99.90;;;;;;5072833;28;20502;-37
2022/12/20 13:15:20;;;;;;;3.75;2.65;;;6.20;99.90;;;;;;5073025;28;20047;-39
2022/12/20 13:17:57;;;;;;;3.72;2.58;;;6.10;99.90;;;;;;5072553;28;20474;-40
2022/12/20 13:20:28;;;;;;;4.88;2.70;;;6.00;99.90;;;;;;5072623;28;20040;-41
2022/12/20 13:23:09;;;;;;;5.40;2.70;;;5.90;99.90;;;;;;5072461;28;20016;-39